createdAt,value
2023-01-29T00:00:18.602Z,1197
2023-01-29T00:02:18.181Z,1129
2023-01-29T00:04:17.957Z,1193
2023-01-29T00:06:17.788Z,1050
2023-01-29T00:08:18.197Z,1101
2023-01-29T00:10:18.971Z,1101
2023-01-29T00:12:19.019Z,1079
2023-01-29T00:14:18.183Z,1058
2023-01-29T00:16:17.887Z,1156
2023-01-29T00:18:17.785Z,1006
2023-01-29T00:20:18.271Z,1010
2023-01-29T00:22:18.161Z,964
2023-01-29T00:24:17.922Z,1046
2023-01-29T00:26:17.590Z,1017
2023-01-29T00:28:18.258Z,945
2023-01-29T00:30:18.979Z,1101
2023-01-29T00:32:18.016Z,1081
2023-01-29T00:34:17.700Z,1092
2023-01-29T00:36:17.323Z,1073
2023-01-29T00:38:17.976Z,1001
2023-01-29T00:40:18.087Z,1020
2023-01-29T00:42:17.850Z,919
2023-01-29T00:44:17.560Z,1043
2023-01-29T00:46:17.558Z,919
2023-01-29T00:48:18.160Z,942
2023-01-29T00:50:18.066Z,953
2023-01-29T00:52:18.030Z,976
2023-01-29T00:54:17.185Z,810
2023-01-29T00:56:17.808Z,968
2023-01-29T00:58:17.865Z,804
2023-01-29T01:00:17.798Z,981
2023-01-29T01:02:17.840Z,940
2023-01-29T01:04:17.418Z,895
2023-01-29T01:06:17.296Z,823
2023-01-29T01:08:17.653Z,846
2023-01-29T01:10:18.349Z,962
2023-01-29T01:12:18.044Z,957
2023-01-29T01:14:17.775Z,927
2023-01-29T01:16:17.430Z,938
2023-01-29T01:18:18.180Z,822
2023-01-29T01:20:17.842Z,917
2023-01-29T01:22:17.687Z,872
2023-01-29T01:24:17.619Z,817
2023-01-29T01:26:17.889Z,858
2023-01-29T01:28:17.444Z,972
2023-01-29T01:30:18.272Z,876
2023-01-29T01:32:17.904Z,897
2023-01-29T01:34:17.489Z,827
2023-01-29T01:36:18.033Z,753
2023-01-29T01:38:17.767Z,680
2023-01-29T01:40:17.625Z,876
2023-01-29T01:42:17.373Z,898
2023-01-29T01:44:17.930Z,841
2023-01-29T01:46:17.585Z,852
2023-01-29T01:48:18.178Z,772
2023-01-29T01:50:18.035Z,782
2023-01-29T01:52:17.755Z,745
2023-01-29T01:54:17.310Z,858
2023-01-29T01:56:17.972Z,876
2023-01-29T01:58:17.562Z,843
2023-01-29T02:00:17.474Z,877
2023-01-29T02:02:18.493Z,793
2023-01-29T02:04:17.886Z,773
2023-01-29T02:06:17.434Z,713
2023-01-29T02:08:18.137Z,814
2023-01-29T02:10:18.016Z,816
2023-01-29T02:12:17.711Z,771
2023-01-29T02:14:17.332Z,926
2023-01-29T02:16:18.050Z,976
2023-01-29T02:18:17.768Z,948
2023-01-29T02:20:18.262Z,908
2023-01-29T02:22:17.409Z,958
2023-01-29T02:24:17.930Z,932
2023-01-29T02:26:17.538Z,905
2023-01-29T02:28:17.450Z,854
2023-01-29T02:30:18.327Z,849
2023-01-29T02:32:17.974Z,808
2023-01-29T02:34:17.927Z,774
2023-01-29T02:36:17.513Z,904
2023-01-29T02:38:18.167Z,838
2023-01-29T02:40:18.187Z,868
2023-01-29T02:42:17.878Z,915
2023-01-29T02:44:17.691Z,947
2023-01-29T02:46:17.461Z,878
2023-01-29T02:48:18.054Z,895
2023-01-29T02:50:17.989Z,828
2023-01-29T02:52:17.788Z,917
2023-01-29T02:54:17.322Z,864
2023-01-29T02:56:17.378Z,825
2023-01-29T02:58:17.966Z,891
2023-01-29T03:00:18.311Z,901
2023-01-29T03:02:18.093Z,910
2023-01-29T03:04:17.702Z,880
2023-01-29T03:06:17.307Z,883
2023-01-29T03:08:18.132Z,896
2023-01-29T03:10:18.042Z,736
2023-01-29T03:12:19.688Z,856
2023-01-29T03:14:17.246Z,780
2023-01-29T03:16:17.988Z,859
2023-01-29T03:18:17.753Z,867
2023-01-29T03:20:17.774Z,692
2023-01-29T03:22:17.379Z,785
2023-01-29T03:24:17.628Z,886
2023-01-29T03:26:17.309Z,828
2023-01-29T03:28:17.927Z,763
2023-01-29T03:30:17.747Z,786
2023-01-29T03:32:17.446Z,719
2023-01-29T03:34:17.402Z,780
2023-01-29T03:36:17.899Z,698
2023-01-29T03:38:17.521Z,682
2023-01-29T03:40:18.578Z,815
2023-01-29T03:42:17.326Z,762
2023-01-29T03:44:18.030Z,780
2023-01-29T03:46:17.723Z,675
2023-01-29T03:48:17.318Z,724
2023-01-29T03:50:18.036Z,789
2023-01-29T03:52:17.843Z,769
2023-01-29T03:54:17.435Z,787
2023-01-29T03:56:18.005Z,792
2023-01-29T03:58:17.644Z,755
2023-01-29T04:00:17.647Z,771
2023-01-29T04:02:17.368Z,674
2023-01-29T04:04:17.987Z,656
2023-01-29T04:06:17.886Z,713
2023-01-29T04:08:17.452Z,725
2023-01-29T04:10:18.296Z,731
2023-01-29T04:12:17.951Z,767
2023-01-29T04:14:17.551Z,710
2023-01-29T04:16:18.268Z,613
2023-01-29T04:18:17.994Z,675
2023-01-29T04:20:18.085Z,722
2023-01-29T04:22:17.842Z,664
2023-01-29T04:24:17.797Z,628
2023-01-29T04:26:17.953Z,703
2023-01-29T04:28:18.073Z,599
2023-01-29T04:30:18.301Z,741
2023-01-29T04:32:18.007Z,704
2023-01-29T04:34:17.875Z,638
2023-01-29T04:36:17.428Z,749
2023-01-29T04:38:17.946Z,688
2023-01-29T04:40:17.754Z,669
2023-01-29T04:42:17.528Z,722
2023-01-29T04:44:17.378Z,543
2023-01-29T04:46:17.423Z,718
2023-01-29T04:48:17.308Z,791
2023-01-29T04:50:18.196Z,708
2023-01-29T04:52:18.005Z,626
2023-01-29T04:54:17.553Z,701
2023-01-29T04:56:17.400Z,767
2023-01-29T04:58:18.040Z,646
2023-01-29T05:00:17.787Z,801
2023-01-29T05:02:17.321Z,720
2023-01-29T05:04:17.406Z,692
2023-01-29T05:06:18.005Z,811
2023-01-29T05:08:17.606Z,634
2023-01-29T05:10:18.105Z,747
2023-01-29T05:12:17.889Z,690
2023-01-29T05:14:17.474Z,732
2023-01-29T05:16:18.236Z,762
2023-01-29T05:18:17.944Z,748
2023-01-29T05:20:17.960Z,749
2023-01-29T05:22:17.862Z,784
2023-01-29T05:24:17.508Z,684
2023-01-29T05:26:17.915Z,643
2023-01-29T05:28:17.607Z,820
2023-01-29T05:30:18.219Z,838
2023-01-29T05:32:18.084Z,807
2023-01-29T05:34:17.984Z,759
2023-01-29T05:36:17.567Z,789
2023-01-29T05:38:17.564Z,706
2023-01-29T05:40:18.361Z,738
2023-01-29T05:42:18.170Z,770
2023-01-29T05:44:17.457Z,709
2023-01-29T05:46:18.047Z,780
2023-01-29T05:48:17.755Z,709
2023-01-29T05:50:17.650Z,757
2023-01-29T05:52:18.031Z,663
2023-01-29T05:54:17.613Z,758
2023-01-29T05:56:17.167Z,643
2023-01-29T05:58:17.951Z,722
2023-01-29T06:00:17.931Z,674
2023-01-29T06:02:17.780Z,716
2023-01-29T06:04:17.317Z,758
2023-01-29T06:06:17.920Z,729
2023-01-29T06:08:17.432Z,665
2023-01-29T06:10:18.137Z,630
2023-01-29T06:12:18.058Z,636
2023-01-29T06:14:17.792Z,717
2023-01-29T06:16:17.737Z,696
2023-01-29T06:18:17.479Z,769
2023-01-29T06:20:18.343Z,665
2023-01-29T06:22:18.133Z,653
2023-01-29T06:24:17.320Z,620
2023-01-29T06:26:17.904Z,632
2023-01-29T06:28:17.497Z,665
2023-01-29T06:30:17.860Z,753
2023-01-29T06:32:17.766Z,624
2023-01-29T06:34:18.304Z,668
2023-01-29T06:36:18.162Z,583
2023-01-29T06:38:18.019Z,584
2023-01-29T06:40:17.572Z,675
2023-01-29T06:42:17.310Z,641
2023-01-29T06:44:17.747Z,617
2023-01-29T06:46:17.703Z,681
2023-01-29T06:48:17.659Z,628
2023-01-29T06:50:18.494Z,660
2023-01-29T06:52:17.316Z,735
2023-01-29T06:54:17.265Z,696
2023-01-29T06:56:17.230Z,578
2023-01-29T06:58:18.832Z,622
2023-01-29T07:00:17.516Z,559
2023-01-29T07:02:17.516Z,704
2023-01-29T07:04:17.351Z,647
2023-01-29T07:06:18.003Z,735
2023-01-29T07:08:17.306Z,736
2023-01-29T07:10:18.280Z,624
2023-01-29T07:12:17.471Z,652
2023-01-29T07:14:23.088Z,579
2023-01-29T07:16:17.706Z,761
2023-01-29T07:18:17.479Z,660
2023-01-29T07:20:17.898Z,676
2023-01-29T07:22:17.961Z,732
2023-01-29T07:24:17.868Z,760
2023-01-29T07:26:17.428Z,719
2023-01-29T07:28:17.974Z,709
2023-01-29T07:30:17.929Z,759
2023-01-29T07:32:17.456Z,660
2023-01-29T07:34:18.139Z,768
2023-01-29T07:36:17.819Z,713
2023-01-29T07:38:17.544Z,707
2023-01-29T07:40:17.528Z,687
2023-01-29T07:42:17.626Z,689
2023-01-29T07:44:17.225Z,700
2023-01-29T07:46:17.415Z,729
2023-01-29T07:48:18.206Z,696
2023-01-29T07:50:17.997Z,647
2023-01-29T07:52:17.625Z,805
2023-01-29T07:54:17.153Z,718
2023-01-29T07:56:17.814Z,781
2023-01-29T07:58:17.384Z,827
2023-01-29T08:00:18.245Z,997
2023-01-29T08:02:18.005Z,791
2023-01-29T08:04:17.829Z,920
2023-01-29T08:06:17.441Z,1005
2023-01-29T08:08:18.062Z,1070
2023-01-29T08:10:18.001Z,1015
2023-01-29T08:12:17.440Z,1020
2023-01-29T08:14:18.021Z,887
2023-01-29T08:16:17.710Z,879
2023-01-29T08:18:17.443Z,973
2023-01-29T08:20:18.543Z,933
2023-01-29T08:22:17.295Z,1007
2023-01-29T08:24:17.793Z,1021
2023-01-29T08:26:17.457Z,995
2023-01-29T08:28:18.022Z,1020
2023-01-29T08:30:18.552Z,990
2023-01-29T08:32:17.261Z,978
2023-01-29T08:34:17.877Z,1057
2023-01-29T08:36:17.449Z,1014
2023-01-29T08:38:18.061Z,1172
2023-01-29T08:40:17.605Z,1206
2023-01-29T08:42:17.404Z,1132
2023-01-29T08:44:17.433Z,1389
2023-01-29T08:46:18.193Z,1439
2023-01-29T08:48:17.792Z,1324
2023-01-29T08:50:17.795Z,1402
2023-01-29T08:52:17.931Z,1397
2023-01-29T08:54:17.700Z,1349
2023-01-29T08:56:17.286Z,1358
2023-01-29T08:58:17.917Z,1353
2023-01-29T09:00:17.862Z,1365
2023-01-29T09:02:17.494Z,1264
2023-01-29T09:04:18.062Z,1332
2023-01-29T09:06:18.068Z,1299
2023-01-29T09:08:17.857Z,1248
2023-01-29T09:10:17.482Z,1263
2023-01-29T09:12:18.314Z,1237
2023-01-29T09:14:17.951Z,981
2023-01-29T09:16:17.606Z,1073
2023-01-29T09:18:17.307Z,1179
2023-01-29T09:20:17.921Z,1061
2023-01-29T09:22:17.693Z,1158
2023-01-29T09:24:17.290Z,1198
2023-01-29T09:26:18.046Z,1144
2023-01-29T09:28:17.614Z,1264
2023-01-29T09:30:17.172Z,1181
2023-01-29T09:32:31.821Z,1147
2023-01-29T09:34:17.405Z,1064
2023-01-29T09:36:17.961Z,1096
2023-01-29T09:38:17.855Z,1099
2023-01-29T09:40:17.432Z,1063
2023-01-29T09:42:18.319Z,1074
2023-01-29T09:44:17.910Z,986
2023-01-29T09:46:17.582Z,960
2023-01-29T09:48:17.263Z,970
2023-01-29T09:50:19.977Z,1021
2023-01-29T09:52:17.865Z,1034
2023-01-29T09:54:17.413Z,965
2023-01-29T09:56:17.971Z,1020
2023-01-29T09:58:17.542Z,979
2023-01-29T10:00:18.169Z,949
2023-01-29T10:02:17.923Z,915
2023-01-29T10:04:17.734Z,826
2023-01-29T10:06:17.368Z,922
2023-01-29T10:08:18.013Z,890
2023-01-29T10:10:17.710Z,867
2023-01-29T10:12:17.356Z,869
2023-01-29T10:14:17.890Z,851
2023-01-29T10:16:17.480Z,951
2023-01-29T10:18:17.308Z,828
2023-01-29T10:20:17.875Z,847
2023-01-29T10:22:18.491Z,842
2023-01-29T10:24:18.645Z,856
2023-01-29T10:26:17.481Z,945
2023-01-29T10:28:18.059Z,859
2023-01-29T10:30:17.789Z,931
2023-01-29T10:32:17.394Z,971
2023-01-29T10:34:18.187Z,867
2023-01-29T10:36:17.771Z,856
2023-01-29T10:38:17.292Z,902
2023-01-29T10:40:17.605Z,867
2023-01-29T10:42:17.357Z,940
2023-01-29T10:44:17.635Z,843
2023-01-29T10:46:17.265Z,904
2023-01-29T10:48:18.091Z,837
2023-01-29T10:50:17.635Z,887
2023-01-29T10:52:17.210Z,781
2023-01-29T10:54:17.721Z,926
2023-01-29T10:56:22.564Z,762
2023-01-29T10:58:17.237Z,834
2023-01-29T11:00:18.132Z,860
2023-01-29T11:02:17.607Z,890
2023-01-29T11:04:17.197Z,811
2023-01-29T11:06:17.748Z,902
2023-01-29T11:08:17.343Z,933
2023-01-29T11:10:18.166Z,869
2023-01-29T11:12:19.016Z,864
2023-01-29T11:14:17.897Z,833
2023-01-29T11:16:17.480Z,803
2023-01-29T11:18:17.180Z,909
2023-01-29T11:20:18.386Z,768
2023-01-29T11:22:17.196Z,862
2023-01-29T11:24:17.824Z,789
2023-01-29T11:26:17.759Z,839
2023-01-29T11:28:17.401Z,812
2023-01-29T11:30:17.797Z,1229
2023-01-29T11:32:17.902Z,1308
2023-01-29T11:34:17.498Z,1242
2023-01-29T11:36:17.329Z,1049
2023-01-29T11:38:17.940Z,1169
2023-01-29T11:40:17.826Z,1064
2023-01-29T11:42:17.884Z,1235
2023-01-29T11:44:18.084Z,1246
2023-01-29T11:46:17.437Z,1291
2023-01-29T11:48:18.297Z,1341
2023-01-29T11:50:17.626Z,1199
2023-01-29T11:52:17.487Z,1269
2023-01-29T11:54:18.134Z,1231
2023-01-29T11:56:17.801Z,1166
2023-01-29T11:58:17.971Z,1159
2023-01-29T12:00:18.051Z,1095
2023-01-29T12:02:17.721Z,1030
2023-01-29T12:04:17.297Z,1091
2023-01-29T12:06:17.770Z,1046
2023-01-29T12:08:17.313Z,1124
2023-01-29T12:10:18.114Z,1107
2023-01-29T12:12:17.856Z,1084
2023-01-29T12:14:17.439Z,1098
2023-01-29T12:16:18.027Z,950
2023-01-29T12:18:18.016Z,1060
2023-01-29T12:20:18.237Z,1022
2023-01-29T12:22:17.435Z,1078
2023-01-29T12:24:18.024Z,895
2023-01-29T12:26:17.433Z,916
2023-01-29T12:28:18.063Z,852
2023-01-29T12:30:18.019Z,1055
2023-01-29T12:32:17.875Z,1014
2023-01-29T12:34:17.441Z,1014
2023-01-29T12:36:18.060Z,962
2023-01-29T12:38:17.636Z,869
2023-01-29T12:40:17.502Z,636
2023-01-29T12:42:18.114Z,804
2023-01-29T12:44:17.300Z,755
2023-01-29T12:46:17.814Z,714
2023-01-29T12:48:17.473Z,723
2023-01-29T12:50:18.522Z,708
2023-01-29T12:52:17.330Z,658
2023-01-29T12:54:17.969Z,647
2023-01-29T12:56:17.618Z,672
2023-01-29T12:58:17.712Z,634
2023-01-29T13:00:17.545Z,659
2023-01-29T13:02:17.217Z,723
2023-01-29T13:04:17.817Z,665
2023-01-29T13:06:17.738Z,504
2023-01-29T13:08:17.370Z,574
2023-01-29T13:10:18.393Z,637
2023-01-29T13:12:19.263Z,530
2023-01-29T13:14:17.846Z,605
2023-01-29T13:16:17.529Z,625
2023-01-29T13:18:17.305Z,574
2023-01-29T13:20:18.180Z,582
2023-01-29T13:22:18.176Z,565
2023-01-29T13:24:17.758Z,577
2023-01-29T13:26:17.346Z,547
2023-01-29T13:28:17.561Z,588
2023-01-29T13:30:18.305Z,532
2023-01-29T13:32:17.277Z,529
2023-01-29T13:34:17.852Z,614
2023-01-29T13:36:17.513Z,670
2023-01-29T13:38:18.203Z,694
2023-01-29T13:40:17.921Z,661
2023-01-29T13:42:17.566Z,696
2023-01-29T13:44:18.027Z,570
2023-01-29T13:46:17.714Z,677
2023-01-29T13:48:17.337Z,619
2023-01-29T13:50:17.924Z,614
2023-01-29T13:52:17.618Z,656
2023-01-29T13:54:17.192Z,611
2023-01-29T13:56:17.764Z,532
2023-01-29T13:58:17.921Z,628
2023-01-29T14:00:17.554Z,610
2023-01-29T14:02:18.101Z,597
2023-01-29T14:04:17.238Z,639
2023-01-29T14:06:17.860Z,647
2023-01-29T14:08:17.394Z,617
2023-01-29T14:10:18.125Z,689
2023-01-29T14:12:17.735Z,575
2023-01-29T14:14:17.349Z,606
2023-01-29T14:16:17.978Z,671
2023-01-29T14:18:17.705Z,601
2023-01-29T14:20:17.309Z,630
2023-01-29T14:22:17.913Z,686
2023-01-29T14:24:17.774Z,570
2023-01-29T14:26:17.461Z,555
2023-01-29T14:28:18.088Z,602
2023-01-29T14:30:17.785Z,672
2023-01-29T14:32:17.773Z,642
2023-01-29T14:34:17.390Z,654
2023-01-29T14:36:18.015Z,672
2023-01-29T14:38:17.564Z,578
2023-01-29T14:40:17.627Z,602
2023-01-29T14:42:17.220Z,627
2023-01-29T14:44:17.976Z,533
2023-01-29T14:46:17.820Z,646
2023-01-29T14:48:17.147Z,562
2023-01-29T14:50:17.619Z,509
2023-01-29T14:52:17.276Z,600
2023-01-29T14:54:17.879Z,617
2023-01-29T14:56:17.755Z,600
2023-01-29T14:58:17.394Z,598
2023-01-29T15:00:18.046Z,595
2023-01-29T15:02:17.715Z,625
2023-01-29T15:04:17.546Z,662
2023-01-29T15:06:18.388Z,624
2023-01-29T15:08:18.029Z,643
2023-01-29T15:10:24.614Z,620
2023-01-29T15:12:17.572Z,607
2023-01-29T15:14:18.198Z,734
2023-01-29T15:16:17.839Z,702
2023-01-29T15:18:17.569Z,545
2023-01-29T15:20:18.123Z,627
2023-01-29T15:22:17.662Z,557
2023-01-29T15:24:17.290Z,598
2023-01-29T15:26:17.438Z,563
2023-01-29T15:28:17.959Z,608
2023-01-29T15:30:17.488Z,628
2023-01-29T15:32:18.055Z,529
2023-01-29T15:34:17.822Z,529
2023-01-29T15:36:17.425Z,574
2023-01-29T15:38:17.983Z,473
2023-01-29T15:40:17.583Z,599
2023-01-29T15:42:18.176Z,621
2023-01-29T15:44:17.447Z,556
2023-01-29T15:46:18.024Z,661
2023-01-29T15:48:17.752Z,621
2023-01-29T15:50:17.318Z,529
2023-01-29T15:52:17.360Z,568
2023-01-29T15:54:17.906Z,566
2023-01-29T15:56:17.458Z,565
2023-01-29T15:58:17.395Z,597
2023-01-29T16:00:17.938Z,511
2023-01-29T16:02:17.504Z,548
2023-01-29T16:04:18.091Z,617
2023-01-29T16:06:17.659Z,525
2023-01-29T16:08:17.225Z,568
2023-01-29T16:10:17.843Z,566
2023-01-29T16:12:17.447Z,626
2023-01-29T16:14:18.041Z,489
2023-01-29T16:16:18.333Z,537
2023-01-29T16:18:18.126Z,570
2023-01-29T16:20:17.440Z,584
2023-01-29T16:22:18.016Z,505
2023-01-29T16:24:17.693Z,624
2023-01-29T16:26:17.630Z,609
2023-01-29T16:28:17.195Z,583
2023-01-29T16:30:17.654Z,601
2023-01-29T16:32:17.299Z,603
2023-01-29T16:34:17.976Z,626
2023-01-29T16:36:17.588Z,555
2023-01-29T16:38:17.740Z,583
2023-01-29T16:40:17.314Z,508
2023-01-29T16:42:17.896Z,722
2023-01-29T16:44:17.676Z,571
2023-01-29T16:46:17.354Z,615
2023-01-29T16:48:17.901Z,632
2023-01-29T16:50:17.514Z,590
2023-01-29T16:52:18.050Z,708
2023-01-29T16:54:17.652Z,664
2023-01-29T16:56:17.348Z,711
2023-01-29T16:58:17.887Z,695
2023-01-29T17:00:17.352Z,809
2023-01-29T17:02:17.943Z,690
2023-01-29T17:04:17.638Z,697
2023-01-29T17:06:17.203Z,664
2023-01-29T17:08:18.126Z,806
2023-01-29T17:10:17.775Z,584
2023-01-29T17:12:17.339Z,705
2023-01-29T17:14:17.932Z,638
2023-01-29T17:16:17.409Z,614
2023-01-29T17:18:18.124Z,545
2023-01-29T17:20:22.754Z,619
2023-01-29T17:22:17.336Z,688
2023-01-29T17:24:17.944Z,599
2023-01-29T17:26:17.603Z,627
2023-01-29T17:28:18.284Z,524
2023-01-29T17:30:17.913Z,638
2023-01-29T17:32:18.161Z,730
2023-01-29T17:34:18.426Z,575
2023-01-29T17:36:18.060Z,555
2023-01-29T17:38:25.792Z,646
2023-01-29T17:40:17.797Z,619
2023-01-29T17:42:17.410Z,627
2023-01-29T17:44:18.041Z,633
2023-01-29T17:46:18.606Z,635
2023-01-29T17:48:17.293Z,709
2023-01-29T17:50:17.821Z,678
2023-01-29T17:52:17.724Z,546
2023-01-29T17:54:17.601Z,561
2023-01-29T17:56:18.183Z,633
2023-01-29T17:58:17.852Z,537
2023-01-29T18:00:17.443Z,575
2023-01-29T18:02:28.652Z,493
2023-01-29T18:04:17.921Z,582
2023-01-29T18:06:17.551Z,633
2023-01-29T18:08:17.900Z,665
2023-01-29T18:10:17.499Z,561
2023-01-29T18:12:18.070Z,561
2023-01-29T18:14:18.765Z,624
2023-01-29T18:16:17.478Z,665
2023-01-29T18:18:17.262Z,631
2023-01-29T18:20:17.827Z,602
2023-01-29T18:22:17.608Z,681
2023-01-29T18:24:17.224Z,540
2023-01-29T18:26:17.961Z,657
2023-01-29T18:28:17.562Z,739
2023-01-29T18:30:17.828Z,610
2023-01-29T18:32:17.394Z,604
2023-01-29T18:34:19.002Z,599
2023-01-29T18:36:17.730Z,614
2023-01-29T18:38:17.445Z,726
2023-01-29T18:40:18.046Z,757
2023-01-29T18:42:17.680Z,739
2023-01-29T18:44:17.406Z,711
2023-01-29T18:46:18.014Z,604
2023-01-29T18:48:17.685Z,811
2023-01-29T18:50:17.924Z,676
2023-01-29T18:52:17.934Z,709
2023-01-29T18:54:17.647Z,779
2023-01-29T18:56:17.278Z,666
2023-01-29T18:58:24.692Z,781
2023-01-29T19:00:18.017Z,649
2023-01-29T19:02:17.624Z,816
2023-01-29T19:04:17.223Z,734
2023-01-29T19:06:17.914Z,751
2023-01-29T19:08:17.695Z,607
2023-01-29T19:10:17.944Z,657
2023-01-29T19:12:17.491Z,651
2023-01-29T19:14:18.056Z,684
2023-01-29T19:16:17.674Z,754
2023-01-29T19:18:17.783Z,666
2023-01-29T19:20:17.344Z,697
2023-01-29T19:22:17.964Z,735
2023-01-29T19:24:17.349Z,696
2023-01-29T19:26:18.019Z,721
2023-01-29T19:28:17.757Z,721
2023-01-29T19:30:17.924Z,713
2023-01-29T19:32:17.270Z,739
2023-01-29T19:34:17.960Z,749
2023-01-29T19:36:17.945Z,719
2023-01-29T19:38:17.646Z,766
2023-01-29T19:40:17.166Z,807
2023-01-29T19:42:17.853Z,759
2023-01-29T19:44:17.383Z,846
2023-01-29T19:46:17.951Z,769
2023-01-29T19:48:17.910Z,591
2023-01-29T19:50:17.486Z,753
2023-01-29T19:52:18.084Z,672
2023-01-29T19:54:17.928Z,802
2023-01-29T19:56:17.539Z,760
2023-01-29T19:58:18.141Z,803
2023-01-29T20:00:19.151Z,738
2023-01-29T20:02:17.799Z,663
2023-01-29T20:04:17.385Z,726
2023-01-29T20:06:17.993Z,763
2023-01-29T20:08:17.728Z,718
2023-01-29T20:10:18.129Z,789
2023-01-29T20:12:17.541Z,790
2023-01-29T20:14:18.112Z,708
2023-01-29T20:16:17.766Z,671
2023-01-29T20:18:17.521Z,793
2023-01-29T20:20:18.431Z,671
2023-01-29T20:22:18.106Z,781
2023-01-29T20:24:17.831Z,736
2023-01-29T20:26:17.834Z,738
2023-01-29T20:28:17.923Z,776
2023-01-29T20:30:17.939Z,735
2023-01-29T20:32:17.582Z,738
2023-01-29T20:34:18.202Z,638
2023-01-29T20:36:17.770Z,754
2023-01-29T20:38:19.063Z,749
2023-01-29T20:40:17.986Z,750
2023-01-29T20:42:17.678Z,665
2023-01-29T20:44:17.351Z,686
2023-01-29T20:46:17.242Z,703
2023-01-29T20:48:18.129Z,687
2023-01-29T20:50:17.973Z,617
2023-01-29T20:52:17.983Z,671
2023-01-29T20:54:17.559Z,719
2023-01-29T20:56:17.277Z,677
2023-01-29T20:58:17.573Z,751
2023-01-29T21:00:18.554Z,659
2023-01-29T21:02:17.935Z,641
2023-01-29T21:04:17.908Z,635
2023-01-29T21:06:17.500Z,711
2023-01-29T21:08:18.171Z,700
2023-01-29T21:10:18.044Z,639
2023-01-29T21:12:17.746Z,740
2023-01-29T21:14:17.344Z,738
2023-01-29T21:16:18.098Z,634
2023-01-29T21:18:17.814Z,739
2023-01-29T21:20:17.688Z,675
2023-01-29T21:22:17.556Z,676
2023-01-29T21:24:18.141Z,694
2023-01-29T21:26:17.775Z,613
2023-01-29T21:28:17.401Z,639
2023-01-29T21:30:17.935Z,689
2023-01-29T21:32:17.768Z,610
2023-01-29T21:34:17.335Z,644
2023-01-29T21:36:18.246Z,655
2023-01-29T21:38:17.933Z,660
2023-01-29T21:40:18.045Z,673
2023-01-29T21:42:17.740Z,566
2023-01-29T21:44:17.310Z,603
2023-01-29T21:46:18.028Z,624
2023-01-29T21:48:17.711Z,614
2023-01-29T21:50:18.196Z,677
2023-01-29T21:52:17.654Z,676
2023-01-29T21:54:17.601Z,607
2023-01-29T21:56:17.970Z,677
2023-01-29T21:58:17.711Z,592
2023-01-29T22:00:17.519Z,598
2023-01-29T22:02:17.397Z,624
2023-01-29T22:04:18.079Z,607
2023-01-29T22:06:17.893Z,709
2023-01-29T22:08:17.654Z,638
2023-01-29T22:10:17.693Z,603
2023-01-29T22:12:18.174Z,668
2023-01-29T22:14:18.102Z,678
2023-01-29T22:16:17.650Z,665
2023-01-29T22:18:17.394Z,627
2023-01-29T22:20:17.511Z,629
2023-01-29T22:22:17.726Z,673
2023-01-29T22:24:17.873Z,671
2023-01-29T22:26:17.659Z,669
2023-01-29T22:28:17.380Z,657
2023-01-29T22:30:18.206Z,615
2023-01-29T22:32:17.793Z,622
2023-01-29T22:34:17.321Z,600
2023-01-29T22:36:17.952Z,678
2023-01-29T22:38:17.575Z,543
2023-01-29T22:40:17.603Z,620
2023-01-29T22:42:17.359Z,560
2023-01-29T22:44:18.217Z,600
2023-01-29T22:46:18.018Z,558
2023-01-29T22:48:17.675Z,620
2023-01-29T22:50:17.613Z,507
2023-01-29T22:52:18.000Z,546
2023-01-29T22:54:17.584Z,524
2023-01-29T22:56:17.371Z,582
2023-01-29T22:58:17.311Z,567
2023-01-29T23:00:20.530Z,687
2023-01-29T23:02:18.181Z,503
2023-01-29T23:04:17.801Z,536
2023-01-29T23:06:17.462Z,614
2023-01-29T23:08:17.182Z,539
2023-01-29T23:10:18.324Z,700
2023-01-29T23:12:18.062Z,495
2023-01-29T23:14:17.716Z,528
2023-01-29T23:16:17.342Z,502
2023-01-29T23:18:17.851Z,516
2023-01-29T23:20:17.567Z,581
2023-01-29T23:22:17.668Z,494
2023-01-29T23:24:17.219Z,571
2023-01-29T23:26:17.875Z,658
2023-01-29T23:28:17.718Z,656
2023-01-29T23:30:18.414Z,642
2023-01-29T23:32:17.281Z,542
2023-01-29T23:34:17.970Z,536
2023-01-29T23:36:17.579Z,630
2023-01-29T23:38:17.288Z,575
2023-01-29T23:40:18.156Z,599
2023-01-29T23:42:17.860Z,620
2023-01-29T23:44:17.398Z,605
2023-01-29T23:46:17.271Z,525
2023-01-29T23:48:17.926Z,613
2023-01-29T23:50:17.931Z,654
2023-01-29T23:52:17.668Z,602
2023-01-29T23:54:17.278Z,682
2023-01-29T23:56:17.932Z,627
2023-01-29T23:58:17.540Z,701
